Time;durP1;ratioP1;P1;durP2;ratioP2;P2;SDS_P1;SDS_P2;PMS_P1;PMS_P2;Temp;Humidity;BMP_temperature;BMP_pressure;BME280_temperature;BME280_humidity;BME280_pressure;Samples;Min_cycle;Max_cycle;Signal;HPM_P1;HPM_P2
2022/04/10 04:22:35;;;;;;;10.23;5.53;;;;;;;3.33;91.42;100685.53;5129534;27;20112;-73
2022/04/10 04:25:05;;;;;;;8.13;5.05;;;;;;;3.35;90.94;100694.97;5111519;28;20455;-73
2022/04/10 04:27:32;;;;;;;9.30;5.25;;;;;;;3.44;90.48;100696.06;5128231;28;20047;-73
2022/04/10 04:30:00;;;;;;;8.88;4.70;;;;;;;3.44;90.70;100704.81;5128512;28;20032;-74
2022/04/10 04:32:26;;;;;;;9.65;5.47;;;;;;;3.48;91.12;100702.78;5128191;28;20034;-73
2022/04/10 04:34:52;;;;;;;14.52;5.57;;;;;;;3.48;90.81;100706.25;5129046;28;20031;-74
2022/04/10 04:37:17;;;;;;;10.25;5.18;;;;;;;3.45;90.58;100706.47;5128247;28;20033;-74
2022/04/10 04:39:43;;;;;;;17.27;6.50;;;;;;;3.57;90.58;100711.78;5111222;28;20027;-74
2022/04/10 04:42:09;;;;;;;8.98;5.50;;;;;;;3.54;89.99;100716.34;5127738;28;20046;-74
2022/04/10 04:44:35;;;;;;;10.93;6.28;;;;;;;3.54;89.96;100720.75;5128176;28;20035;-73
2022/04/10 04:47:00;;;;;;;10.13;6.18;;;;;;;3.57;89.60;100717.03;5128092;28;20043;-74
2022/04/10 04:49:27;;;;;;;12.68;5.85;;;;;;;3.60;89.47;100717.66;5128184;28;20096;-74
2022/04/10 04:51:53;;;;;;;11.23;5.30;;;;;;;3.57;90.03;100717.03;5129141;28;20382;-74
2022/04/10 04:54:20;;;;;;;11.40;5.30;;;;;;;3.60;89.27;100732.63;5127985;28;20126;-74
2022/04/10 04:56:46;;;;;;;12.43;6.82;;;;;;;3.58;89.75;100723.97;5129090;28;20031;-74
2022/04/10 04:59:14;;;;;;;13.23;5.72;;;;;;;3.59;89.60;100730.97;5110927;28;20139;-74
2022/04/10 05:01:41;;;;;;;11.63;6.50;;;;;;;3.54;89.85;100737.41;5129006;28;20055;-74
2022/04/10 05:04:08;;;;;;;13.82;6.15;;;;;;;3.56;89.57;100737.28;5127967;28;20115;-74
2022/04/10 05:06:34;;;;;;;13.88;6.57;;;;;;;3.55;89.19;100743.50;5128991;27;20403;-74
2022/04/10 05:09:00;;;;;;;8.77;5.43;;;;;;;3.57;89.60;100746.03;5127697;28;20092;-74
2022/04/10 05:11:26;;;;;;;12.35;5.80;;;;;;;3.53;89.49;100742.78;5127533;28;20028;-73
2022/04/10 05:13:52;;;;;;;9.70;5.93;;;;;;;3.54;88.48;100734.78;5110386;28;20032;-73
2022/04/10 05:16:18;;;;;;;12.60;5.63;;;;;;;3.59;89.10;100741.50;5127725;28;20479;-73
2022/04/10 05:18:47;;;;;;;13.00;7.40;;;;;;;3.65;88.95;100738.38;5127646;28;20058;-73
2022/04/10 05:21:14;;;;;;;9.40;5.10;;;;;;;3.65;89.09;100749.78;5127519;28;20492;-73
2022/04/10 05:23:39;;;;;;;12.10;6.07;;;;;;;3.73;88.13;100746.56;5127218;28;20116;-73
2022/04/10 05:26:11;;;;;;;11.23;5.50;;;;;;;3.78;88.10;100744.38;5127246;28;20039;-73
2022/04/10 05:28:40;;;;;;;10.57;6.25;;;;;;;3.82;87.45;100759.00;5127552;28;20376;-74
2022/04/10 05:31:06;;;;;;;15.88;7.32;;;;;;;3.87;87.76;100762.13;5128679;28;20028;-74
2022/04/10 05:33:36;;;;;;;10.27;5.80;;;;;;;3.89;87.82;100762.84;5098836;28;20038;-74
2022/04/10 05:36:02;;;;;;;9.43;5.72;;;;;;;3.91;88.17;100766.22;5113509;28;20521;-74
2022/04/10 05:38:29;;;;;;;12.37;5.93;;;;;;;3.93;87.35;100766.94;5113817;28;20039;-75
2022/04/10 05:40:54;;;;;;;10.60;6.18;;;;;;;3.89;87.68;100760.22;5113385;28;20312;-75
2022/04/10 05:43:24;;;;;;;14.10;6.40;;;;;;;3.96;87.70;100774.59;5113385;28;20046;-75
2022/04/10 05:45:51;;;;;;;10.52;5.57;;;;;;;4.01;87.49;100771.63;5113756;28;20031;-75
2022/04/10 05:48:17;;;;;;;13.55;6.07;;;;;;;4.06;87.70;100775.59;5096554;28;20039;-76
2022/04/10 05:50:43;;;;;;;16.63;7.40;;;;;;;4.14;87.56;100784.69;5113473;28;20452;-76
2022/04/10 05:53:10;;;;;;;12.68;6.40;;;;;;;4.13;87.41;100775.94;5113153;28;20032;-75
2022/04/10 05:55:39;;;;;;;11.00;6.20;;;;;;;4.20;87.40;100787.69;5096735;28;20035;-72
2022/04/10 05:58:09;;;;;;;9.95;6.22;;;;;;;4.24;86.70;100783.03;5113103;28;20035;-72
2022/04/10 06:00:36;;;;;;;9.27;5.90;;;;;;;4.29;85.80;100788.78;5113009;28;20207;-71
2022/04/10 06:03:09;;;;;;;9.90;6.03;;;;;;;4.31;86.58;100792.97;5114241;28;20036;-73
2022/04/10 06:05:38;;;;;;;9.77;6.20;;;;;;;4.36;85.38;100797.88;5112781;28;20047;-73
2022/04/10 06:08:11;;;;;;;9.27;5.80;;;;;;;4.45;84.78;100802.44;5113202;28;20067;-73
2022/04/10 06:10:37;;;;;;;9.82;5.85;;;;;;;4.43;85.84;100801.72;5095892;28;20056;-73
2022/04/10 06:13:09;;;;;;;12.60;6.03;;;;;;;4.51;86.25;100798.50;5095932;28;20066;-72
2022/04/10 06:15:37;;;;;;;11.10;6.85;;;;;;;4.53;84.63;100800.03;5112774;28;20059;-74
2022/04/10 06:18:02;;;;;;;14.00;6.63;;;;;;;4.60;85.79;100811.78;5112763;28;20404;-73
2022/04/10 06:20:28;;;;;;;8.48;5.60;;;;;;;4.62;85.78;100804.59;5112440;28;20036;-73
2022/04/10 06:22:54;;;;;;;11.07;6.10;;;;;;;4.68;84.97;100799.78;5113655;28;20032;-73
2022/04/10 06:25:21;;;;;;;9.13;5.82;;;;;;;4.75;83.82;100809.72;5095707;28;20063;-74
2022/04/10 06:27:47;;;;;;;9.25;5.72;;;;;;;4.80;82.80;100797.00;5094463;28;20058;-73
2022/04/10 06:30:13;;;;;;;9.68;6.35;;;;;;;4.86;82.92;100804.44;5112276;28;20034;-75
2022/04/10 06:32:46;;;;;;;9.20;5.40;;;;;;;4.97;82.91;100800.94;5112927;28;20058;-74
2022/04/10 06:35:12;;;;;;;9.85;5.20;;;;;;;5.06;82.82;100813.41;5113739;28;20036;-74
2022/04/10 06:37:38;;;;;;;9.88;5.30;;;;;;;5.14;82.45;100810.97;5078629;28;20046;-74
2022/04/10 06:40:06;;;;;;;9.10;5.78;;;;;;;5.16;81.16;100810.88;5078509;28;20171;-74
2022/04/10 06:42:32;;;;;;;12.65;6.43;;;;;;;5.21;82.65;100819.22;5094429;28;20051;-73
2022/04/10 06:45:08;;;;;;;8.55;5.53;;;;;;;5.29;80.43;100818.63;5111356;28;20063;-74
2022/04/10 06:47:52;;;;;;;13.43;6.05;;;;;;;5.28;82.04;100811.63;5113230;28;20051;-73
2022/04/10 06:50:18;;;;;;;12.10;6.25;;;;;;;5.36;80.54;100811.88;5112143;28;20412;-72
2022/04/10 06:52:44;;;;;;;12.38;5.30;;;;;;;5.47;79.51;100817.09;5110777;28;20035;-72
2022/04/10 06:55:11;;;;;;;10.50;6.07;;;;;;;5.54;78.93;100817.44;5111694;28;20035;-72
2022/04/10 06:57:38;;;;;;;9.10;5.55;;;;;;;5.55;78.00;100817.31;5078017;28;20036;-73
2022/04/10 07:00:04;;;;;;;12.20;5.35;;;;;;;5.67;77.62;100811.03;5111454;28;20481;-73
2022/04/10 07:02:33;;;;;;;9.77;5.60;;;;;;;5.73;77.89;100818.41;5110715;28;20035;-72
2022/04/10 07:04:59;;;;;;;9.60;5.63;;;;;;;5.77;76.09;100823.47;5111830;28;20039;-75
2022/04/10 07:07:30;;;;;;;12.60;5.47;;;;;;;5.88;77.89;100829.53;5095253;28;20046;-73
2022/04/10 07:09:58;;;;;;;9.90;5.50;;;;;;;5.84;76.73;100824.63;5094733;28;20035;-74
2022/04/10 07:12:24;;;;;;;;;;;;;;;5.98;75.36;100822.50;5111390;28;20028;-73
2022/04/10 07:14:51;;;;;;;9.02;5.10;;;;;;;6.04;75.95;100826.44;5094798;28;20329;-71
2022/04/10 07:17:17;;;;;;;9.30;5.68;;;;;;;6.13;76.08;100827.47;5111050;28;20035;-72
2022/04/10 07:19:47;;;;;;;9.38;5.15;;;;;;;6.24;74.86;100833.53;5111486;28;20115;-72
2022/04/10 07:24:59;;;;;;;9.75;5.55;;;;;;;6.41;73.31;100833.91;5111135;28;20035;-72
2022/04/10 07:27:25;;;;;;;11.35;6.40;;;;;;;6.35;73.38;100839.72;5110641;28;20042;-73
2022/04/10 07:30:10;;;;;;;10.85;6.03;;;;;;;6.40;73.98;100848.09;5096863;28;20117;-71
2022/04/10 07:32:39;;;;;;;11.25;6.45;;;;;;;6.53;73.57;100836.34;5073359;28;20177;-72
2022/04/10 07:35:14;;;;;;;16.58;8.38;;;;;;;6.57;74.54;100847.47;5107485;28;20039;-72
2022/04/10 07:37:48;;;;;;;10.63;6.05;;;;;;;6.54;71.55;100845.09;5090740;28;20036;-72
2022/04/10 07:40:14;;;;;;;12.00;5.85;;;;;;;6.49;71.44;100842.84;5090505;28;20032;-71
2022/04/10 07:42:44;;;;;;;9.60;5.25;;;;;;;6.65;72.75;100837.09;5090155;28;20130;-71
2022/04/10 07:48:10;;;;;;;10.95;6.65;;;;;;;6.89;72.20;100827.94;5090520;28;20117;-71
2022/04/10 07:50:38;;;;;;;;;;;;;;;6.91;69.37;100832.16;5090918;28;20512;-72
2022/04/10 07:53:04;;;;;;;11.52;5.65;;;;;;;7.00;69.81;100833.97;5090082;28;20341;-72
2022/04/10 07:55:32;;;;;;;8.43;5.07;;;;;;;7.11;69.70;100843.63;5073944;28;20076;-74
2022/04/10 07:58:03;;;;;;;10.40;5.72;;;;;;;7.17;69.70;100843.09;5106751;28;20442;-72
2022/04/10 08:00:32;;;;;;;10.52;5.60;;;;;;;7.23;68.81;100846.97;5090333;28;20123;-73
2022/04/10 08:03:01;;;;;;;11.15;5.97;;;;;;;7.41;70.54;100836.53;5090236;28;20032;-72
2022/04/10 08:05:56;;;;;;;10.52;6.13;;;;;;;7.54;67.26;100842.41;5086864;28;20039;-72
2022/04/10 08:08:30;;;;;;;15.52;8.02;;;;;;;7.75;67.87;100842.25;5091525;28;20036;-72
2022/04/10 08:10:56;;;;;;;8.82;5.30;;;;;;;8.00;67.39;100852.28;5091541;28;20028;-72
2022/04/10 08:13:22;;;;;;;10.05;5.07;;;;;;;8.16;65.48;100854.38;5090160;28;20028;-73
2022/04/10 08:15:48;;;;;;;9.25;5.40;;;;;;;8.12;65.65;100847.66;5091382;28;20059;-74
2022/04/10 08:18:15;;;;;;;9.15;5.82;;;;;;;8.14;62.64;100848.34;5091309;28;20043;-74
2022/04/10 08:20:40;;;;;;;11.05;6.13;;;;;;;8.15;63.81;100845.59;5091269;28;20036;-74
2022/04/10 08:23:06;;;;;;;10.27;6.07;;;;;;;8.27;65.42;100853.34;5091050;28;20046;-73
2022/04/10 08:25:32;;;;;;;12.90;5.68;;;;;;;8.33;65.58;100853.63;5091478;28;20036;-74
2022/04/10 08:27:57;;;;;;;13.07;6.35;;;;;;;8.39;64.14;100847.75;5091507;28;20028;-73
2022/04/10 08:30:23;;;;;;;10.90;5.75;;;;;;;8.55;64.25;100864.94;5091813;28;20036;-74
2022/04/10 08:32:49;;;;;;;11.20;6.00;;;;;;;8.72;64.41;100861.47;5073868;28;20561;-73
2022/04/10 08:35:15;;;;;;;9.07;6.07;;;;;;;9.05;63.81;100860.06;5091893;28;20400;-74
2022/04/10 08:37:41;;;;;;;9.98;5.78;;;;;;;9.00;62.75;100858.84;5092112;28;20040;-74
2022/04/10 08:40:08;;;;;;;9.05;5.97;;;;;;;8.91;61.35;100872.03;5091442;28;20043;-74
2022/04/10 08:42:33;;;;;;;8.85;5.40;;;;;;;8.76;62.26;100868.19;5106704;28;20739;-73
2022/04/10 08:44:59;;;;;;;13.85;7.28;;;;;;;8.81;62.20;100863.28;5107070;28;20113;-73
2022/04/10 08:47:26;;;;;;;9.63;5.50;;;;;;;8.73;62.95;100864.97;5106834;28;20051;-73
2022/04/10 08:49:53;;;;;;;11.77;5.70;;;;;;;8.77;64.11;100875.16;5106983;28;20028;-73
2022/04/10 08:52:21;;;;;;;13.17;5.97;;;;;;;8.70;64.79;100877.56;5091211;28;20039;-73
2022/04/10 08:54:49;;;;;;;9.25;5.25;;;;;;;8.78;62.52;100878.66;5090033;28;20075;-72
2022/04/10 08:57:15;;;;;;;9.88;6.05;;;;;;;8.84;61.37;100878.91;5091273;28;20032;-72
2022/04/10 08:59:42;;;;;;;10.00;5.13;;;;;;;8.79;62.68;100875.84;5091282;28;20114;-73
2022/04/10 09:02:10;;;;;;;10.23;5.45;;;;;;;8.81;60.69;100878.38;5090717;28;20036;-73
2022/04/10 09:04:36;;;;;;;9.27;5.30;;;;;;;8.74;61.40;100878.13;5091173;28;20097;-72
2022/04/10 09:07:05;;;;;;;10.10;5.70;;;;;;;8.73;58.47;100875.59;5090792;28;20024;-73
2022/04/10 09:09:31;;;;;;;9.82;5.50;;;;;;;8.60;60.34;100881.22;5094928;28;20039;-73
2022/04/10 09:11:58;;;;;;;10.13;5.15;;;;;;;8.54;61.37;100884.47;5095288;28;20032;-73
2022/04/10 09:14:26;;;;;;;12.05;5.45;;;;;;;8.38;62.63;100877.94;5094986;28;20485;-72
2022/04/10 09:17:16;;;;;;;13.07;5.57;;;;;;;8.48;60.73;100882.41;5093494;28;20410;-73
2022/04/10 09:19:44;;;;;;;11.23;5.80;;;;;;;8.31;61.97;100882.13;5093374;28;20040;-72
2022/04/10 09:22:22;;;;;;;;;;;;;;;8.32;60.24;100885.63;5094853;28;20385;-71
2022/04/10 09:25:11;;;;;;;10.32;5.95;;;;;;;8.46;61.67;100885.19;5094485;28;19957;-71
2022/04/10 09:27:43;;;;;;;9.38;4.97;;;;;;;8.49;61.77;100890.22;5094493;28;20564;-72
2022/04/10 09:30:11;;;;;;;12.38;5.63;;;;;;;8.61;61.99;100894.38;5094458;28;20040;-73
2022/04/10 09:32:36;;;;;;;;;;;;;;;8.64;60.38;100890.59;5093398;28;20024;-73
2022/04/10 09:35:02;;;;;;;10.52;5.35;;;;;;;8.61;59.85;100890.91;5094303;28;19990;-71
2022/04/10 09:37:30;;;;;;;9.43;5.65;;;;;;;8.68;61.08;100886.69;5094284;28;20043;-72
2022/04/10 09:40:24;;;;;;;11.57;5.78;;;;;;;8.78;61.17;100895.44;5094215;28;20078;-72
2022/04/10 09:43:11;;;;;;;9.48;4.68;;;;;;;8.88;60.29;100890.94;5093298;28;20036;-72
2022/04/10 09:45:43;;;;;;;7.03;5.20;;;;;;;8.77;60.18;100893.75;5093912;28;20072;-73
2022/04/10 09:48:31;;;;;;;12.73;6.25;;;;;;;8.60;58.87;100891.84;5094292;28;20032;-75
2022/04/10 09:50:59;;;;;;;9.68;5.53;;;;;;;8.79;59.15;100889.13;5093029;28;20075;-75
2022/04/10 09:53:26;;;;;;;17.10;5.82;;;;;;;8.85;60.32;100888.56;5093844;28;20132;-74
2022/04/10 09:56:03;;;;;;;14.18;6.70;;;;;;;8.94;59.55;100878.88;5094026;28;20042;-73
2022/04/10 09:58:29;;;;;;;12.25;5.28;;;;;;;9.03;58.41;100887.78;5093902;28;20039;-73
2022/04/10 10:00:57;;;;;;;14.43;5.97;;;;;;;9.15;58.09;100876.81;5093902;28;20032;-74
2022/04/10 10:03:24;;;;;;;13.18;6.53;;;;;;;9.25;57.18;100876.72;5093784;28;20145;-74
2022/04/10 10:05:54;;;;;;;13.13;6.05;;;;;;;9.46;59.95;100877.31;5093689;28;20036;-75
2022/04/10 10:08:22;;;;;;;17.98;7.88;;;;;;;9.19;57.22;100872.88;5093727;28;20074;-74
2022/04/10 10:10:48;;;;;;;13.35;5.95;;;;;;;9.33;55.97;100865.38;5093764;28;20032;-74
2022/04/10 10:13:14;;;;;;;8.88;5.63;;;;;;;9.32;57.68;100864.50;5093360;28;20092;-75
2022/04/10 10:15:42;;;;;;;10.35;5.50;;;;;;;9.32;58.31;100869.00;5092357;28;20040;-72
2022/04/10 10:18:12;;;;;;;12.15;6.85;;;;;;;9.27;53.73;100858.00;5093795;28;20044;-72
2022/04/10 10:20:42;;;;;;;10.32;6.68;;;;;;;9.12;55.81;100861.13;5093710;28;20047;-75
2022/04/10 10:23:11;;;;;;;12.20;6.00;;;;;;;9.05;58.92;100854.75;5093547;28;20369;-73
2022/04/10 10:26:24;;;;;;;11.68;6.47;;;;;;;8.92;61.69;100865.72;5092752;28;20057;-72
2022/04/10 10:28:56;;;;;;;10.85;6.95;;;;;;;8.90;61.85;100870.34;5058994;28;20542;-73
2022/04/10 10:31:47;;;;;;;12.57;6.15;;;;;;;8.99;62.74;100868.63;5092162;28;20034;-76
2022/04/10 10:34:14;;;;;;;10.57;6.15;;;;;;;8.69;61.54;100859.13;5092900;28;20088;-74
2022/04/10 10:36:40;;;;;;;10.93;5.97;;;;;;;8.75;61.25;100866.53;5091892;28;20038;-74
2022/04/10 10:39:07;;;;;;;14.23;6.72;;;;;;;8.68;63.26;100866.28;5093119;28;20032;-74
2022/04/10 10:41:37;;;;;;;10.95;6.35;;;;;;;8.53;61.63;100866.88;5092925;28;20059;-73
2022/04/10 10:44:24;;;;;;;10.45;6.10;;;;;;;8.49;61.93;100869.00;5093050;28;20046;-74
2022/04/10 10:47:02;;;;;;;10.52;6.15;;;;;;;8.34;63.58;100873.88;5092962;28;20568;-73
2022/04/10 10:49:43;;;;;;;13.32;6.80;;;;;;;8.03;65.83;100880.38;5093034;28;20039;-75
2022/04/10 10:52:10;;;;;;;12.68;7.43;;;;;;;7.99;70.60;100892.22;5092709;28;20025;-73
2022/04/10 10:54:44;;;;;;;14.63;7.15;;;;;;;7.97;70.13;100872.97;5093046;28;20480;-73
2022/04/10 10:57:37;;;;;;;10.80;6.78;;;;;;;7.66;68.08;100875.78;5093101;28;20036;-73
2022/04/10 11:00:10;;;;;;;14.07;7.57;;;;;;;7.23;74.96;100874.31;5092553;28;20123;-73
2022/04/10 11:02:39;;;;;;;12.80;7.18;;;;;;;7.57;68.31;100860.69;5092820;28;20025;-73
2022/04/10 11:05:30;;;;;;;12.30;6.97;;;;;;;7.86;69.04;100861.53;5091548;28;20028;-73
2022/04/10 11:08:13;;;;;;;11.90;7.20;;;;;;;7.89;74.61;100863.06;5092884;28;20162;-74
2022/04/10 11:11:03;;;;;;;12.43;7.25;;;;;;;8.21;68.49;100853.94;5091451;28;20036;-74
2022/04/10 11:13:47;;;;;;;13.35;6.78;;;;;;;8.39;69.48;100845.09;5083101;28;20055;-74
2022/04/10 11:16:14;;;;;;;11.32;6.85;;;;;;;8.43;67.02;100849.16;5091345;28;20036;-74
2022/04/10 11:18:49;;;;;;;26.38;11.57;;;;;;;8.51;71.95;100842.28;5108208;28;20476;-73
2022/04/10 11:21:19;;;;;;;14.98;6.45;;;;;;;8.46;69.32;100833.91;5092275;28;20086;-74
2022/04/10 11:23:45;;;;;;;12.85;6.53;;;;;;;8.42;69.31;100834.22;5091028;28;20401;-75
2022/04/10 11:26:15;;;;;;;19.83;7.57;;;;;;;8.49;70.75;100831.81;5057638;28;20405;-75
2022/04/10 11:29:04;;;;;;;12.18;7.45;;;;;;;8.51;71.41;100839.63;5092146;28;20163;-75
2022/04/10 11:31:47;;;;;;;20.63;7.78;;;;;;;8.61;69.62;100829.81;5090505;28;20047;-76
2022/04/10 11:34:19;;;;;;;12.13;6.57;;;;;;;8.84;67.34;100824.94;5091237;28;20042;-76
2022/04/10 11:36:52;;;;;;;14.38;7.35;;;;;;;8.74;70.08;100818.81;5092258;28;20050;-74
2022/04/10 11:39:22;;;;;;;14.30;6.68;;;;;;;8.72;72.88;100821.66;5092201;28;20047;-74
2022/04/10 11:41:49;;;;;;;16.98;7.18;;;;;;;8.73;75.77;100825.13;5090421;28;20032;-75
2022/04/10 11:44:15;;;;;;;16.92;9.90;;;;;;;8.76;75.54;100822.19;5092174;28;20035;-75
2022/04/10 11:46:44;;;;;;;12.50;6.88;;;;;;;8.57;75.10;100817.81;5074063;28;20073;-75
2022/04/10 11:49:10;;;;;;;16.98;7.93;;;;;;;8.60;75.15;100823.66;5092020;28;20040;-74
2022/04/10 11:51:55;;;;;;;11.57;7.22;;;;;;;8.47;75.44;100823.13;5091764;28;20032;-73
2022/04/10 11:54:28;;;;;;;18.70;7.68;;;;;;;8.63;72.96;100835.81;5091985;28;20140;-74
2022/04/10 11:56:54;;;;;;;13.60;7.28;;;;;;;8.30;77.62;100859.22;5091789;28;20123;-74
2022/04/10 11:59:21;;;;;;;17.35;7.28;;;;;;;8.26;77.17;100859.66;5091934;28;20067;-75
2022/04/10 12:01:49;;;;;;;13.65;7.60;;;;;;;8.26;73.55;100868.44;5091591;28;20524;-74
2022/04/10 12:04:16;;;;;;;;;;;;;;;8.40;72.51;100888.41;5092256;28;20086;-75
2022/04/10 12:06:41;;;;;;;11.93;8.00;;;;;;;8.21;72.87;100891.09;5090876;28;19931;-75
2022/04/10 12:09:07;;;;;;;14.20;6.70;;;;;;;7.98;76.64;100894.06;5091739;28;20040;-75
2022/04/10 12:11:38;;;;;;;12.75;7.93;;;;;;;7.84;81.90;100883.88;5091487;28;20111;-74
2022/04/10 12:14:17;;;;;;;12.50;7.00;;;;;;;7.59;79.39;100875.50;5091574;28;20036;-75
2022/04/10 12:16:43;;;;;;;12.77;7.50;;;;;;;7.62;78.01;100877.84;5091465;28;20032;-73
2022/04/10 12:19:09;;;;;;;17.45;9.40;;;;;;;7.47;78.20;100859.84;5091540;28;20492;-74
2022/04/10 12:21:35;;;;;;;13.10;8.00;;;;;;;7.39;77.14;100867.66;5091244;28;20032;-74
2022/04/10 12:24:03;;;;;;;13.32;7.43;;;;;;;7.24;81.98;100856.63;5091379;28;20082;-74
2022/04/10 12:26:29;;;;;;;;;;;;;;;7.27;78.94;100859.00;5073864;28;20458;-73
2022/04/10 12:28:56;;;;;;;17.00;7.88;;;;;;;7.31;80.18;100849.81;5090188;28;19947;-75
2022/04/10 12:31:22;;;;;;;10.95;6.88;;;;;;;7.46;77.73;100845.75;5091197;28;20032;-73
2022/04/10 12:33:48;;;;;;;14.50;8.48;;;;;;;7.39;81.08;100854.41;5091154;28;20035;-74
2022/04/10 12:36:18;;;;;;;10.73;6.95;;;;;;;7.38;78.29;100852.75;5090028;28;20093;-74
2022/04/10 12:38:44;;;;;;;14.73;7.20;;;;;;;7.70;79.49;100842.69;5091462;28;20093;-74
2022/04/10 12:41:09;;;;;;;11.25;6.43;;;;;;;8.18;74.38;100847.09;5091412;28;20370;-72
2022/04/10 12:43:35;;;;;;;10.70;6.53;;;;;;;8.59;72.82;100840.56;5106480;27;20114;-73
2022/04/10 12:46:12;;;;;;;10.88;6.65;;;;;;;9.40;68.45;100834.53;5126252;27;20109;-73
2022/04/10 12:48:38;;;;;;;10.77;6.28;;;;;;;9.97;67.97;100835.84;5122499;27;20092;-73
2022/04/10 12:51:11;;;;;;;12.07;5.95;;;;;;;10.39;62.17;100827.19;5125859;27;20379;-73
2022/04/10 12:53:38;;;;;;;10.40;6.13;;;;;;;10.32;64.12;100823.47;5122024;27;20043;-72
2022/04/10 12:56:04;;;;;;;12.27;6.28;;;;;;;10.17;63.41;100817.00;5125273;27;20491;-72
2022/04/10 12:58:50;;;;;;;9.98;6.20;;;;;;;10.00;63.41;100814.25;5126547;27;20027;-73
2022/04/10 13:01:30;;;;;;;10.93;6.15;;;;;;;9.71;62.73;100811.03;5123663;27;20476;-73
2022/04/10 13:04:01;;;;;;;13.43;6.10;;;;;;;10.18;65.28;100808.88;5120333;27;20034;-72
2022/04/10 13:07:02;;;;;;;10.73;6.35;;;;;;;10.27;62.99;100813.28;5123557;27;20133;-71
2022/04/10 13:09:28;;;;;;;8.38;5.28;;;;;;;10.15;63.15;100811.00;5059907;28;20537;-72
2022/04/10 13:11:53;;;;;;;14.57;6.38;;;;;;;10.26;64.31;100813.47;5102897;27;20082;-72
2022/04/10 13:14:19;;;;;;;10.30;5.55;;;;;;;9.98;66.64;100810.91;5125695;27;20085;-73
2022/04/10 13:16:47;;;;;;;16.10;9.40;;;;;;;9.76;63.81;100820.22;5107056;27;20068;-72
2022/04/10 13:19:19;;;;;;;14.40;7.05;;;;;;;9.72;64.22;100810.88;5124038;27;20035;-72
2022/04/10 13:21:46;;;;;;;14.95;6.70;;;;;;;9.89;61.84;100821.66;5124253;27;20464;-72
2022/04/10 13:24:13;;;;;;;12.50;6.40;;;;;;;10.11;63.58;100815.84;5126008;27;20518;-72
2022/04/10 13:26:40;;;;;;;8.35;5.93;;;;;;;10.00;62.13;100813.41;5124251;27;20031;-72
2022/04/10 13:29:09;;;;;;;10.57;5.50;;;;;;;10.16;60.58;100810.03;5125879;27;20037;-72
2022/04/10 13:31:35;;;;;;;13.40;5.63;;;;;;;10.72;59.09;100811.34;5124715;27;20485;-72
2022/04/10 13:34:04;;;;;;;10.50;5.78;;;;;;;11.69;53.43;100803.56;5122486;27;20403;-72
2022/04/10 13:36:31;;;;;;;9.55;5.00;;;;;;;12.38;55.72;100803.13;5124070;27;20035;-72
2022/04/10 13:38:58;;;;;;;12.38;6.20;;;;;;;13.46;53.75;100792.59;5123008;27;20031;-73
2022/04/10 13:41:24;;;;;;;8.68;5.60;;;;;;;13.12;50.25;100801.81;5124507;27;20031;-72
2022/04/10 13:43:49;;;;;;;10.20;5.43;;;;;;;12.77;50.46;100797.81;5123724;27;20027;-73
2022/04/10 13:46:15;;;;;;;7.70;5.65;;;;;;;13.30;50.52;100805.09;5123172;27;20038;-73
2022/04/10 13:48:41;;;;;;;11.80;5.72;;;;;;;13.02;51.54;100802.03;5124424;27;20035;-74
2022/04/10 13:51:07;;;;;;;11.52;5.72;;;;;;;12.74;51.47;100804.34;5120938;27;20076;-73
2022/04/10 13:53:32;;;;;;;10.20;5.88;;;;;;;12.08;55.25;100792.22;5113817;28;20028;-72
2022/04/10 13:55:58;;;;;;;9.48;5.80;;;;;;;11.71;54.05;100790.03;5114400;28;20400;-73
2022/04/10 13:58:23;;;;;;;11.77;5.90;;;;;;;11.24;55.76;100790.69;5113170;28;20038;-73
2022/04/10 14:00:49;;;;;;;10.30;6.05;;;;;;;10.81;58.32;100797.06;5113872;28;20031;-74
2022/04/10 14:03:15;;;;;;;11.07;6.32;;;;;;;10.76;56.38;100786.91;5112790;28;20492;-74
2022/04/10 14:05:40;;;;;;;8.25;5.60;;;;;;;10.38;56.58;100774.91;5114359;28;20082;-74
2022/04/10 14:08:06;;;;;;;8.52;5.05;;;;;;;10.19;57.93;100775.13;5114193;28;20048;-74
2022/04/10 14:10:35;;;;;;;12.73;6.88;;;;;;;10.34;58.27;100784.19;5112809;28;20032;-72
2022/04/10 14:13:01;;;;;;;15.82;5.93;;;;;;;10.01;58.74;100780.47;5113768;28;20399;-72
2022/04/10 14:15:26;;;;;;;11.25;5.57;;;;;;;10.16;57.85;100776.25;5113687;28;20035;-74
2022/04/10 14:17:56;;;;;;;13.60;7.13;;;;;;;10.13;60.31;100781.06;5095759;28;20043;-73
2022/04/10 14:20:22;;;;;;;13.27;6.70;;;;;;;9.99;58.10;100780.66;5096039;28;20126;-73
2022/04/10 14:22:48;;;;;;;9.73;5.63;;;;;;;9.80;59.46;100770.22;5113529;28;20036;-73
2022/04/10 14:25:14;;;;;;;14.43;6.53;;;;;;;9.81;56.96;100768.38;5112448;28;20039;-73
2022/04/10 14:27:40;;;;;;;10.82;6.55;;;;;;;9.84;57.84;100770.72;5113798;28;20039;-73
2022/04/10 14:30:06;;;;;;;9.68;5.75;;;;;;;9.93;57.64;100769.78;5112493;28;20028;-73
2022/04/10 14:32:32;;;;;;;13.82;7.18;;;;;;;10.12;60.44;100768.75;5112040;28;20040;-73
2022/04/10 14:34:58;;;;;;;10.27;5.95;;;;;;;10.08;57.90;100770.88;5113723;28;20023;-75
2022/04/10 14:37:24;;;;;;;11.35;6.60;;;;;;;10.04;58.16;100767.72;5113566;28;20476;-74
2022/04/10 14:39:49;;;;;;;10.35;6.28;;;;;;;9.81;63.21;100771.03;5112577;28;20195;-73
2022/04/10 14:42:15;;;;;;;13.88;6.75;;;;;;;9.64;62.69;100786.03;5111923;28;20101;-74
2022/04/10 14:44:42;;;;;;;11.45;6.13;;;;;;;9.54;63.72;100774.66;5107556;27;20389;-74
2022/04/10 14:47:08;;;;;;;14.38;7.30;;;;;;;9.51;62.84;100781.94;5113513;28;20027;-73
2022/04/10 14:49:34;;;;;;;14.50;6.18;;;;;;;9.10;63.86;100771.91;5111915;28;20230;-73
2022/04/10 14:52:02;;;;;;;14.30;7.95;;;;;;;9.28;63.41;100771.94;5094390;28;20067;-73
2022/04/10 14:54:27;;;;;;;10.60;6.90;;;;;;;9.36;66.43;100767.53;5113282;28;20023;-77
2022/04/10 14:56:53;;;;;;;18.88;7.45;;;;;;;9.07;65.06;100756.28;5113247;27;20519;-75
2022/04/10 14:59:19;;;;;;;15.82;7.97;;;;;;;9.11;64.48;100765.63;5111519;28;20036;-73
2022/04/10 15:01:44;;;;;;;15.25;7.47;;;;;;;9.21;64.80;100763.72;5112093;28;20408;-73
2022/04/10 15:04:10;;;;;;;20.65;8.13;;;;;;;9.25;65.27;100763.25;5112958;28;20031;-73
2022/04/10 15:06:36;;;;;;;10.40;6.40;;;;;;;8.99;67.73;100765.00;5110794;28;20541;-73
2022/04/10 15:09:02;;;;;;;16.30;9.07;;;;;;;9.18;67.37;100759.53;5110911;28;20058;-77
2022/04/10 15:11:28;;;;;;;10.50;6.07;;;;;;;9.21;66.96;100755.75;5110032;28;20027;-74
2022/04/10 15:13:54;;;;;;;12.82;7.22;;;;;;;9.39;67.24;100755.72;5111825;28;20031;-73
2022/04/10 15:16:19;;;;;;;11.70;6.10;;;;;;;9.50;65.95;100753.66;5111461;28;20488;-74
2022/04/10 15:18:45;;;;;;;12.52;6.50;;;;;;;9.55;63.82;100744.41;5112360;28;20043;-73
2022/04/10 15:21:11;;;;;;;10.65;6.68;;;;;;;9.57;65.20;100753.06;5111072;28;20038;-74
2022/04/10 15:23:36;;;;;;;12.30;6.68;;;;;;;9.47;65.93;100754.00;5110929;28;20135;-74
2022/04/10 15:26:04;;;;;;;15.77;9.20;;;;;;;9.61;62.93;100747.28;5097391;28;20073;-72
2022/04/10 15:28:30;;;;;;;;;;;;;;;9.77;62.38;100736.75;5110945;28;20130;-73
2022/04/10 15:30:55;;;;;;;13.27;8.95;;;;;;;9.84;61.90;100744.09;5112080;28;20196;-72
2022/04/10 15:33:21;;;;;;;31.35;22.50;;;;;;;9.87;62.97;100738.50;5109610;28;20089;-73
2022/04/10 15:35:47;;;;;;;17.80;11.40;;;;;;;9.95;63.60;100741.19;5111305;28;20055;-72
2022/04/10 15:38:14;;;;;;;12.15;8.38;;;;;;;10.04;61.65;100737.56;5111445;28;20377;-73
2022/04/10 15:40:39;;;;;;;13.18;10.70;;;;;;;9.91;61.31;100738.03;5111715;28;20040;-73
2022/04/10 15:43:05;;;;;;;13.65;7.18;;;;;;;10.02;60.41;100740.41;5110308;28;20057;-72
2022/04/10 15:45:31;;;;;;;11.27;5.78;;;;;;;9.87;60.71;100741.97;5111834;28;20067;-72
2022/04/10 15:47:56;;;;;;;9.82;5.88;;;;;;;9.86;59.28;100729.66;5112245;28;20035;-73
2022/04/10 15:50:22;;;;;;;13.57;6.32;;;;;;;9.99;58.92;100735.41;5111781;28;20045;-72
2022/04/10 15:52:49;;;;;;;13.88;7.00;;;;;;;10.08;60.11;100733.63;5111023;28;20126;-75
2022/04/10 15:55:17;;;;;;;14.38;7.82;;;;;;;10.12;59.90;100731.50;5111537;28;20477;-73
2022/04/10 15:57:45;;;;;;;18.48;10.63;;;;;;;10.06;60.12;100728.47;5112132;28;20032;-73
2022/04/10 16:00:12;;;;;;;11.20;6.90;;;;;;;10.09;59.90;100731.78;5111431;28;20172;-74
2022/04/10 16:02:44;;;;;;;11.80;7.18;;;;;;;10.11;60.32;100721.84;5110968;28;20038;-73